Time;durP1;ratioP1;P1;durP2;ratioP2;P2;SDS_P1;SDS_P2;PMS_P1;PMS_P2;Temp;Humidity;BMP_temperature;BMP_pressure;BME280_temperature;BME280_humidity;BME280_pressure;Samples;Min_cycle;Max_cycle;Signal;HPM_P1;HPM_P2
2023/06/28 00:02:00;;;;;;;8.07;3.30;;;16.70;99.90;;;;;;5064585;28;20048;-57
2023/06/28 00:04:25;;;;;;;12.57;3.30;;;16.70;99.90;;;;;;5058647;28;20070;-56
2023/06/28 00:06:51;;;;;;;9.43;3.38;;;16.60;99.90;;;;;;5075310;28;20053;-57
2023/06/28 00:09:17;;;;;;;7.68;2.70;;;16.60;99.90;;;;;;5065913;28;20037;-57
2023/06/28 00:11:44;;;;;;;7.25;2.85;;;16.60;99.90;;;;;;5071810;28;20182;-56
2023/06/28 00:14:10;;;;;;;10.23;3.13;;;16.60;99.90;;;;;;5062559;28;20040;-57
2023/06/28 00:16:35;;;;;;;8.48;2.67;;;16.60;99.90;;;;;;5066237;28;20037;-57
2023/06/28 00:19:02;;;;;;;6.13;2.83;;;16.60;99.90;;;;;;5073961;28;20457;-57
2023/06/28 00:21:28;;;;;;;6.07;2.65;;;16.60;99.90;;;;;;5078500;28;20036;-55
2023/06/28 00:23:54;;;;;;;6.93;2.78;;;16.60;99.90;;;;;;5081187;28;20037;-56
2023/06/28 00:26:21;;;;;;;7.15;3.10;;;16.60;99.90;;;;;;5071640;28;20493;-57
2023/06/28 00:28:48;;;;;;;7.22;2.58;;;16.60;99.90;;;;;;5060114;28;20045;-57
2023/06/28 00:31:13;;;;;;;7.97;2.40;;;16.60;99.90;;;;;;5068571;28;20366;-56
2023/06/28 00:33:39;;;;;;;6.35;2.65;;;16.50;99.90;;;;;;5076273;28;20045;-56
2023/06/28 00:36:05;;;;;;;7.93;2.67;;;16.50;99.90;;;;;;5063658;28;20049;-57
2023/06/28 00:38:32;;;;;;;5.80;2.75;;;16.50;99.90;;;;;;5076420;28;20071;-56
2023/06/28 00:40:58;;;;;;;8.05;3.10;;;16.50;99.90;;;;;;5066567;28;20051;-57
2023/06/28 00:43:23;;;;;;;10.40;2.72;;;16.40;99.90;;;;;;5077682;28;20048;-57
2023/06/28 00:45:49;;;;;;;9.35;3.30;;;16.40;99.90;;;;;;5069785;28;20507;-57
2023/06/28 00:48:15;;;;;;;7.97;3.40;;;16.40;99.90;;;;;;5071736;28;20384;-58
2023/06/28 00:50:41;;;;;;;7.75;2.88;;;16.40;99.90;;;;;;5060325;28;20045;-56
2023/06/28 00:53:07;;;;;;;5.97;3.10;;;16.40;99.90;;;;;;5061653;28;20108;-57
2023/06/28 00:55:33;;;;;;;8.77;3.25;;;16.40;99.90;;;;;;5077098;28;20033;-56
2023/06/28 00:58:00;;;;;;;6.75;3.15;;;16.40;99.90;;;;;;5079904;28;20037;-57
2023/06/28 01:00:26;;;;;;;9.70;3.40;;;16.40;99.90;;;;;;5062369;28;20529;-56
2023/06/28 01:02:52;;;;;;;8.27;3.45;;;16.40;99.90;;;;;;5075185;28;20045;-57
2023/06/28 01:05:20;;;;;;;8.45;3.25;;;16.40;99.90;;;;;;5081836;28;20360;-56
2023/06/28 01:07:47;;;;;;;6.40;3.22;;;16.30;99.90;;;;;;5062977;28;20036;-56
2023/06/28 01:10:17;;;;;;;6.47;3.03;;;16.30;99.90;;;;;;5066505;28;20105;-57
2023/06/28 01:12:43;;;;;;;10.55;3.35;;;16.30;99.90;;;;;;5066729;28;20048;-58
2023/06/28 01:15:09;;;;;;;9.07;3.60;;;16.30;99.90;;;;;;5069756;28;20037;-57
2023/06/28 01:17:35;;;;;;;8.77;3.05;;;16.20;99.90;;;;;;5074628;28;20048;-57
2023/06/28 01:20:03;;;;;;;7.25;3.10;;;16.20;99.90;;;;;;5075690;28;20040;-57
2023/06/28 01:22:31;;;;;;;6.57;3.03;;;16.20;99.90;;;;;;5078411;28;20051;-57
2023/06/28 01:24:57;;;;;;;9.50;3.25;;;16.20;99.90;;;;;;5079727;28;20044;-57
2023/06/28 01:27:24;;;;;;;6.65;3.10;;;16.10;99.90;;;;;;5081162;28;20209;-57
2023/06/28 01:29:56;;;;;;;7.43;3.40;;;16.10;99.90;;;;;;5080501;28;20044;-57
2023/06/28 01:32:23;;;;;;;7.38;3.15;;;16.10;99.90;;;;;;5078695;28;20483;-56
2023/06/28 01:34:48;;;;;;;7.82;3.25;;;16.10;99.90;;;;;;5081177;28;20058;-56
2023/06/28 01:37:14;;;;;;;7.75;3.38;;;16.10;99.90;;;;;;5079506;28;20068;-57
2023/06/28 01:39:40;;;;;;;10.57;3.20;;;16.10;99.90;;;;;;5080898;28;20032;-56
2023/06/28 01:42:07;;;;;;;8.40;3.17;;;16.10;99.90;;;;;;5077782;28;20108;-56
2023/06/28 01:44:33;;;;;;;8.80;2.97;;;16.10;99.90;;;;;;5078758;28;20041;-56
2023/06/28 01:46:58;;;;;;;7.85;3.00;;;16.10;99.90;;;;;;5075048;28;20041;-57
2023/06/28 01:49:25;;;;;;;8.18;3.53;;;16.00;99.90;;;;;;5059998;28;20045;-57
2023/06/28 01:51:54;;;;;;;8.50;3.97;;;16.00;99.90;;;;;;5068760;28;20083;-56
2023/06/28 01:54:20;;;;;;;11.25;3.60;;;16.00;99.90;;;;;;5078358;28;20055;-57
2023/06/28 01:56:46;;;;;;;8.07;3.50;;;16.00;99.90;;;;;;5073334;28;20075;-57
2023/06/28 01:59:12;;;;;;;8.88;4.03;;;16.00;99.90;;;;;;5041057;28;20060;-57
2023/06/28 02:01:37;;;;;;;10.25;3.50;;;15.90;99.90;;;;;;5064962;28;20048;-56
2023/06/28 02:04:03;;;;;;;6.80;3.65;;;16.00;99.90;;;;;;5061403;28;20062;-56
2023/06/28 02:06:29;;;;;;;10.88;3.95;;;15.90;99.90;;;;;;5060835;28;20047;-57
2023/06/28 02:08:55;;;;;;;9.55;4.20;;;15.90;99.90;;;;;;5065375;28;20663;-56
2023/06/28 02:11:20;;;;;;;6.90;4.10;;;15.90;99.90;;;;;;5069108;28;20052;-60
2023/06/28 02:13:46;;;;;;;8.57;4.28;;;15.90;99.90;;;;;;5069180;28;20052;-57
2023/06/28 02:16:13;;;;;;;7.60;4.35;;;15.90;99.90;;;;;;5073068;28;20117;-57
2023/06/28 02:18:39;;;;;;;7.43;4.20;;;15.90;99.90;;;;;;5071678;28;20055;-57
2023/06/28 02:21:05;;;;;;;11.98;4.43;;;15.90;99.90;;;;;;5077518;28;20084;-57
2023/06/28 02:23:30;;;;;;;9.18;4.30;;;15.90;99.90;;;;;;5076266;28;20040;-57
2023/06/28 02:25:56;;;;;;;6.70;4.63;;;15.90;99.90;;;;;;5070028;28;20489;-56
2023/06/28 02:28:22;;;;;;;11.55;4.82;;;15.90;99.90;;;;;;5074364;28;20040;-57
2023/06/28 02:30:47;;;;;;;9.18;4.82;;;15.90;99.90;;;;;;5069924;28;20151;-57
2023/06/28 02:33:13;;;;;;;9.65;4.40;;;15.90;99.90;;;;;;5066061;28;20059;-57
2023/06/28 02:35:39;;;;;;;11.02;4.38;;;15.90;99.90;;;;;;5072560;28;20041;-57
2023/06/28 02:38:05;;;;;;;8.13;4.40;;;15.90;99.90;;;;;;5076909;28;20040;-57
2023/06/28 02:40:30;;;;;;;8.80;4.80;;;15.90;99.90;;;;;;5079052;28;20044;-57
2023/06/28 02:42:56;;;;;;;9.30;4.63;;;15.90;99.90;;;;;;5068332;28;20060;-57
2023/06/28 02:45:21;;;;;;;12.25;4.97;;;15.90;99.90;;;;;;5059353;28;20072;-56
2023/06/28 02:47:47;;;;;;;14.30;5.10;;;15.90;99.90;;;;;;5068471;28;20041;-56
2023/06/28 02:50:13;;;;;;;7.90;4.55;;;15.90;99.90;;;;;;5061176;28;20056;-57
2023/06/28 02:52:38;;;;;;;11.40;5.20;;;15.90;99.90;;;;;;5069994;28;20041;-57
2023/06/28 02:55:07;;;;;;;8.27;4.85;;;15.90;99.90;;;;;;5060920;28;20109;-57
2023/06/28 02:57:33;;;;;;;9.43;5.10;;;15.90;99.90;;;;;;5061815;28;20033;-56
2023/06/28 02:59:58;;;;;;;7.32;5.28;;;15.90;99.90;;;;;;5067179;28;20051;-57
2023/06/28 03:02:24;;;;;;;5.82;5.13;;;15.90;99.90;;;;;;5076627;28;20273;-56
2023/06/28 03:04:50;;;;;;;10.70;5.45;;;15.80;99.90;;;;;;5078825;28;20105;-57
2023/06/28 03:07:16;;;;;;;12.80;5.68;;;15.80;99.90;;;;;;5077267;28;20044;-57
2023/06/28 03:09:42;;;;;;;8.75;5.30;;;15.80;99.90;;;;;;5075775;28;20036;-57
2023/06/28 03:12:09;;;;;;;11.55;4.95;;;15.80;99.90;;;;;;5076927;28;20404;-56
2023/06/28 03:14:35;;;;;;;8.63;5.05;;;15.80;99.90;;;;;;5057810;28;20258;-57
2023/06/28 03:17:01;;;;;;;9.52;5.25;;;15.70;99.90;;;;;;5070833;28;20072;-54
2023/06/28 03:19:27;;;;;;;9.32;4.57;;;15.70;99.90;;;;;;5057068;28;20037;-57
2023/06/28 03:21:52;;;;;;;9.00;4.82;;;15.70;99.90;;;;;;5065535;28;20040;-56
2023/06/28 03:24:18;;;;;;;10.10;5.60;;;15.70;99.90;;;;;;5076506;28;20037;-56
2023/06/28 03:26:44;;;;;;;10.23;5.10;;;15.70;99.90;;;;;;5059115;28;20052;-57
2023/06/28 03:29:10;;;;;;;8.00;4.90;;;15.70;99.90;;;;;;5057802;28;20029;-56
2023/06/28 03:31:35;;;;;;;10.07;5.30;;;15.70;99.90;;;;;;5059036;28;20037;-57
2023/06/28 03:34:01;;;;;;;9.70;5.72;;;15.60;99.90;;;;;;5065863;28;20090;-56
2023/06/28 03:36:31;;;;;;;7.40;5.30;;;15.60;99.90;;;;;;5078455;28;20064;-57
2023/06/28 03:38:57;;;;;;;6.97;4.80;;;15.60;99.90;;;;;;5078934;28;20056;-57
2023/06/28 03:41:26;;;;;;;10.32;5.03;;;15.50;99.90;;;;;;5080242;28;20045;-57
2023/06/28 03:43:52;;;;;;;13.30;5.35;;;15.50;99.90;;;;;;5083240;28;20044;-57
2023/06/28 03:46:17;;;;;;;7.25;4.47;;;15.50;99.90;;;;;;5080431;28;20044;-56
2023/06/28 03:48:43;;;;;;;6.50;4.05;;;15.50;99.90;;;;;;5082851;28;20058;-57
2023/06/28 03:51:09;;;;;;;11.20;4.28;;;15.40;99.90;;;;;;5081818;28;20044;-56
2023/06/28 03:53:35;;;;;;;6.07;4.00;;;15.40;99.90;;;;;;5070309;28;20071;-56
2023/06/28 03:56:00;;;;;;;9.02;3.97;;;15.40;99.90;;;;;;5063346;28;20516;-56
2023/06/28 03:58:26;;;;;;;9.55;3.75;;;15.40;99.90;;;;;;5070404;28;20055;-57
2023/06/28 04:00:52;;;;;;;6.32;3.70;;;15.40;99.90;;;;;;5082363;28;20044;-57
2023/06/28 04:03:18;;;;;;;7.63;3.58;;;15.30;99.90;;;;;;5078850;28;20079;-57
2023/06/28 04:05:44;;;;;;;6.75;3.70;;;15.30;99.90;;;;;;5081817;28;20454;-57
2023/06/28 04:08:11;;;;;;;7.10;3.50;;;15.30;99.90;;;;;;5061564;28;20097;-56
2023/06/28 04:10:38;;;;;;;8.02;3.33;;;15.30;99.90;;;;;;5062630;28;20064;-58
2023/06/28 04:13:04;;;;;;;7.18;3.53;;;15.30;99.90;;;;;;5062493;28;20045;-56
2023/06/28 04:15:29;;;;;;;6.72;3.50;;;15.30;99.90;;;;;;5078387;28;20051;-58
2023/06/28 04:17:55;;;;;;;7.70;3.40;;;15.30;99.90;;;;;;5065697;28;20028;-57
2023/06/28 04:20:21;;;;;;;7.18;3.25;;;15.30;99.90;;;;;;5073871;28;20075;-57
2023/06/28 04:22:47;;;;;;;5.85;3.20;;;15.30;99.90;;;;;;5075210;28;20068;-57
2023/06/28 04:25:12;;;;;;;8.25;3.50;;;15.30;99.90;;;;;;5062828;28;20080;-57
2023/06/28 04:27:38;;;;;;;5.97;2.90;;;15.30;99.90;;;;;;5067601;28;20044;-57
2023/06/28 04:30:04;;;;;;;5.65;2.95;;;15.30;99.90;;;;;;5076520;28;20047;-57
2023/06/28 04:32:30;;;;;;;6.30;3.28;;;15.30;99.90;;;;;;5072329;28;20045;-57
2023/06/28 04:34:59;;;;;;;6.70;2.92;;;15.30;99.90;;;;;;5066967;28;20063;-56
2023/06/28 04:37:27;;;;;;;6.35;3.50;;;15.30;99.90;;;;;;5069048;28;20129;-57
2023/06/28 04:39:54;;;;;;;6.50;3.03;;;15.30;99.90;;;;;;5067737;28;20044;-56
2023/06/28 04:42:20;;;;;;;6.65;3.50;;;15.30;99.90;;;;;;5080820;28;20045;-57
2023/06/28 04:44:49;;;;;;;5.72;3.20;;;15.30;99.90;;;;;;5076379;28;20079;-57
2023/06/28 04:47:16;;;;;;;7.03;3.30;;;15.30;99.90;;;;;;5078765;28;20143;-57
2023/06/28 04:49:45;;;;;;;6.70;3.38;;;15.30;99.90;;;;;;5077989;28;20053;-57
2023/06/28 04:52:12;;;;;;;5.18;3.30;;;15.40;99.90;;;;;;5060996;28;20095;-57
2023/06/28 04:54:39;;;;;;;9.27;3.65;;;15.40;99.90;;;;;;5072628;28;20114;-57
2023/06/28 04:57:05;;;;;;;5.57;3.40;;;15.40;99.90;;;;;;5080378;28;20036;-57
2023/06/28 04:59:30;;;;;;;6.68;3.30;;;15.40;99.90;;;;;;5076820;28;20037;-57
2023/06/28 05:01:56;;;;;;;5.22;3.63;;;15.30;99.90;;;;;;5079305;28;20152;-57
2023/06/28 05:04:22;;;;;;;7.88;3.90;;;15.40;99.90;;;;;;5064416;28;20052;-57
2023/06/28 05:06:47;;;;;;;11.73;3.88;;;15.40;99.90;;;;;;5060428;28;20095;-57
2023/06/28 05:09:13;;;;;;;9.05;3.70;;;15.40;99.90;;;;;;5061986;28;20082;-56
2023/06/28 05:11:39;;;;;;;7.43;3.80;;;15.40;99.90;;;;;;5075540;28;20119;-56
2023/06/28 05:14:04;;;;;;;10.25;4.20;;;15.40;99.90;;;;;;5069788;28;20044;-57
2023/06/28 05:16:30;;;;;;;15.07;4.30;;;15.50;99.90;;;;;;5070934;28;20043;-56
2023/06/28 05:18:56;;;;;;;10.57;4.38;;;15.50;99.90;;;;;;5061322;28;20037;-57
2023/06/28 05:21:21;;;;;;;9.07;4.57;;;15.50;99.90;;;;;;5073551;28;20071;-57
2023/06/28 05:23:47;;;;;;;9.68;5.03;;;15.50;99.90;;;;;;5080341;28;20476;-55
2023/06/28 05:26:13;;;;;;;10.00;4.93;;;15.50;99.90;;;;;;5080032;28;20075;-57
2023/06/28 05:28:38;;;;;;;10.25;4.45;;;15.50;99.90;;;;;;5079737;28;20577;-57
2023/06/28 05:31:04;;;;;;;13.35;4.97;;;15.40;99.90;;;;;;5079893;28;20041;-57
2023/06/28 05:33:30;;;;;;;9.80;5.10;;;15.40;99.90;;;;;;5079206;28;20054;-57
2023/06/28 05:35:55;;;;;;;14.88;5.90;;;15.40;99.90;;;;;;5080386;28;20100;-57
2023/06/28 05:38:21;;;;;;;11.98;5.47;;;15.40;99.90;;;;;;5080393;28;20505;-56
2023/06/28 05:40:52;;;;;;;14.48;5.97;;;15.40;99.90;;;;;;5080095;28;20044;-57
2023/06/28 05:43:20;;;;;;;13.77;5.53;;;15.40;99.90;;;;;;5079725;28;20489;-57
2023/06/28 05:45:46;;;;;;;10.40;5.18;;;15.40;99.90;;;;;;5073389;28;20041;-57
2023/06/28 05:48:12;;;;;;;15.00;5.80;;;15.50;99.90;;;;;;5069902;28;20275;-56
2023/06/28 05:50:38;;;;;;;14.27;5.88;;;15.40;99.90;;;;;;5069431;28;20506;-57
2023/06/28 05:53:04;;;;;;;15.80;6.47;;;15.40;99.90;;;;;;5074912;28;20105;-56
2023/06/28 05:55:29;;;;;;;10.95;6.07;;;15.40;99.90;;;;;;5067266;28;20075;-56
2023/06/28 05:57:55;;;;;;;15.82;5.88;;;15.40;99.90;;;;;;5079445;28;20044;-58
2023/06/28 06:00:21;;;;;;;12.02;6.22;;;15.40;99.90;;;;;;5079052;28;20071;-58
2023/06/28 06:02:46;;;;;;;10.93;6.18;;;15.40;99.90;;;;;;5078488;28;20051;-57
2023/06/28 06:05:13;;;;;;;11.40;6.63;;;15.40;99.90;;;;;;5079429;28;20044;-57
2023/06/28 06:07:39;;;;;;;12.30;7.10;;;15.50;99.90;;;;;;5071107;28;20075;-57
2023/06/28 06:10:06;;;;;;;9.75;6.82;;;15.50;99.90;;;;;;5062722;28;20037;-57
2023/06/28 06:12:31;;;;;;;13.23;6.63;;;15.50;99.90;;;;;;5066360;28;20570;-58
2023/06/28 06:14:59;;;;;;;16.35;6.43;;;15.50;99.90;;;;;;5079315;28;20041;-58
2023/06/28 06:17:24;;;;;;;12.45;6.03;;;15.60;99.90;;;;;;5060695;28;20071;-58
2023/06/28 06:19:50;;;;;;;12.05;6.90;;;15.60;99.90;;;;;;5070612;28;20040;-59
2023/06/28 06:22:16;;;;;;;11.88;6.78;;;15.60;99.90;;;;;;5062096;28;20100;-59
2023/06/28 06:24:41;;;;;;;15.70;6.95;;;15.60;99.90;;;;;;5066961;28;20183;-59
2023/06/28 06:27:08;;;;;;;10.75;6.35;;;15.60;99.90;;;;;;5065655;28;20051;-58
2023/06/28 06:29:33;;;;;;;14.20;6.82;;;15.60;99.90;;;;;;5069105;28;20049;-58
2023/06/28 06:31:59;;;;;;;11.65;6.05;;;15.60;99.90;;;;;;5073298;28;20045;-58
2023/06/28 06:34:25;;;;;;;9.77;6.35;;;15.50;99.90;;;;;;5069922;28;20053;-57
2023/06/28 06:36:51;;;;;;;13.18;6.50;;;15.50;99.90;;;;;;5059344;28;20571;-57
2023/06/28 06:39:17;;;;;;;15.15;6.90;;;15.50;99.90;;;;;;5067613;28;20052;-57
2023/06/28 06:41:42;;;;;;;14.68;6.97;;;15.50;99.90;;;;;;5057828;28;20044;-57
2023/06/28 06:44:08;;;;;;;13.85;7.25;;;15.50;99.90;;;;;;5060470;28;20077;-57
2023/06/28 06:46:34;;;;;;;17.33;7.25;;;15.50;99.90;;;;;;5070146;28;20037;-57
2023/06/28 06:49:00;;;;;;;13.93;7.13;;;15.60;99.90;;;;;;5059451;28;20128;-57
2023/06/28 06:51:25;;;;;;;12.02;6.40;;;15.60;99.90;;;;;;5069336;28;20032;-57
2023/06/28 06:53:51;;;;;;;15.45;6.68;;;15.60;99.90;;;;;;5079861;28;20044;-57
2023/06/28 06:56:21;;;;;;;13.52;7.30;;;15.70;99.90;;;;;;5064912;28;20045;-59
2023/06/28 06:58:47;;;;;;;13.38;6.60;;;15.70;99.90;;;;;;5061687;28;20507;-58
2023/06/28 07:01:13;;;;;;;16.02;7.43;;;15.70;99.90;;;;;;5079276;28;20044;-57
2023/06/28 07:03:39;;;;;;;14.48;6.95;;;15.80;99.90;;;;;;5072455;28;20033;-57
2023/06/28 07:06:05;;;;;;;12.93;7.07;;;15.80;99.90;;;;;;5059781;28;20049;-56
2023/06/28 07:08:31;;;;;;;15.00;6.95;;;15.80;99.90;;;;;;5061723;28;20044;-56
2023/06/28 07:10:57;;;;;;;13.18;7.00;;;15.80;99.90;;;;;;5059658;28;20516;-57
2023/06/28 07:13:22;;;;;;;12.20;6.82;;;15.90;99.90;;;;;;5062508;28;20136;-57
2023/06/28 07:15:48;;;;;;;14.38;6.40;;;15.80;99.90;;;;;;5068504;28;20069;-58
2023/06/28 07:18:14;;;;;;;16.58;6.88;;;15.80;99.90;;;;;;5062439;28;20067;-57
2023/06/28 07:20:40;;;;;;;10.63;6.82;;;15.80;99.90;;;;;;5073768;28;20110;-56
2023/06/28 07:23:06;;;;;;;12.85;6.35;;;15.90;99.90;;;;;;5068832;28;20400;-56
2023/06/28 07:25:32;;;;;;;17.02;6.78;;;15.90;99.90;;;;;;5070019;28;20048;-56
2023/06/28 07:27:58;;;;;;;13.93;6.47;;;15.80;99.90;;;;;;5064156;28;20116;-56
2023/06/28 07:30:24;;;;;;;11.00;6.10;;;15.80;99.90;;;;;;5076053;28;20071;-57
2023/06/28 07:32:49;;;;;;;12.30;6.65;;;15.80;99.90;;;;;;5075618;28;20061;-56
2023/06/28 07:35:15;;;;;;;13.90;6.15;;;15.90;99.90;;;;;;5066658;28;20049;-57
2023/06/28 07:37:41;;;;;;;15.82;6.47;;;15.90;99.90;;;;;;5056890;28;20037;-57
2023/06/28 07:40:08;;;;;;;10.15;5.93;;;15.90;99.90;;;;;;5059799;28;20045;-57
2023/06/28 07:42:33;;;;;;;16.73;7.22;;;15.90;99.90;;;;;;5063465;28;20560;-56
2023/06/28 07:44:59;;;;;;;13.55;6.82;;;15.90;99.90;;;;;;5063235;28;20079;-57
2023/06/28 07:47:25;;;;;;;16.10;7.38;;;15.90;99.90;;;;;;5066375;28;20072;-56
2023/06/28 07:49:50;;;;;;;15.40;7.63;;;16.00;99.90;;;;;;5064194;28;20041;-57
2023/06/28 07:52:16;;;;;;;15.45;6.95;;;16.00;99.90;;;;;;5071789;28;20099;-57
2023/06/28 07:54:42;;;;;;;10.52;6.57;;;16.00;99.90;;;;;;5060809;28;20052;-57
2023/06/28 07:57:09;;;;;;;14.65;7.30;;;16.00;99.90;;;;;;5071684;28;20044;-56
2023/06/28 07:59:34;;;;;;;12.95;7.40;;;16.00;99.90;;;;;;5062227;28;20043;-57
2023/06/28 08:02:00;;;;;;;18.88;7.47;;;16.00;99.90;;;;;;5058795;28;20100;-56
2023/06/28 08:04:26;;;;;;;18.58;7.72;;;16.00;99.90;;;;;;5065068;28;20045;-57
2023/06/28 08:06:51;;;;;;;13.23;7.60;;;16.00;99.90;;;;;;5063787;28;20049;-56
2023/06/28 08:09:17;;;;;;;15.82;7.50;;;16.00;99.90;;;;;;5069473;28;20040;-57
2023/06/28 08:11:43;;;;;;;16.08;7.55;;;16.00;99.90;;;;;;5065704;28;20130;-57
2023/06/28 08:14:08;;;;;;;14.95;8.52;;;16.00;99.90;;;;;;5045059;28;20029;-56
2023/06/28 08:16:34;;;;;;;13.60;8.32;;;16.10;99.90;;;;;;5067338;28;20101;-57
2023/06/28 08:19:00;;;;;;;15.57;8.30;;;16.10;99.90;;;;;;5069641;28;20056;-56
2023/06/28 08:21:25;;;;;;;13.60;8.70;;;16.10;99.90;;;;;;5066106;28;20041;-56
2023/06/28 08:23:52;;;;;;;13.95;8.65;;;16.10;99.90;;;;;;5068492;28;20303;-56
2023/06/28 08:26:18;;;;;;;14.95;8.85;;;16.10;99.90;;;;;;5069206;28;20065;-57
2023/06/28 08:28:44;;;;;;;16.95;8.98;;;16.10;99.90;;;;;;5069152;28;20051;-56
2023/06/28 08:31:10;;;;;;;16.90;9.18;;;16.10;99.90;;;;;;5071236;28;20505;-57
2023/06/28 08:33:35;;;;;;;15.90;9.30;;;16.10;99.90;;;;;;5070442;28;20051;-56
2023/06/28 08:36:01;;;;;;;16.85;9.57;;;16.20;99.90;;;;;;5066201;28;20040;-57
2023/06/28 08:38:27;;;;;;;19.90;9.80;;;16.20;99.90;;;;;;5066725;28;20416;-56
2023/06/28 08:40:52;;;;;;;17.35;9.23;;;16.30;99.90;;;;;;5068165;28;20202;-55
2023/06/28 08:43:21;;;;;;;16.75;9.00;;;16.30;99.90;;;;;;5078996;28;20100;-55
2023/06/28 08:45:47;;;;;;;15.20;9.27;;;16.30;99.90;;;;;;5061928;28;20157;-55
2023/06/28 08:48:13;;;;;;;18.27;9.80;;;16.30;99.90;;;;;;5067968;28;20053;-55
2023/06/28 08:50:40;;;;;;;14.93;9.60;;;16.70;99.90;;;;;;5078056;28;20043;-56
2023/06/28 08:53:09;;;;;;;17.27;10.45;;;16.30;99.90;;;;;;5068423;28;20052;-57
2023/06/28 08:55:36;;;;;;;18.23;9.85;;;16.30;99.90;;;;;;5047593;28;20044;-56
2023/06/28 08:58:05;;;;;;;23.02;10.48;;;16.30;99.90;;;;;;5073428;28;20036;-56
2023/06/28 09:00:31;;;;;;;18.90;10.38;;;16.30;99.90;;;;;;5068850;28;20051;-56
2023/06/28 09:02:57;;;;;;;17.38;10.77;;;16.30;99.90;;;;;;5074054;28;20044;-56
2023/06/28 09:05:23;;;;;;;20.13;10.23;;;16.30;99.90;;;;;;5078429;28;20064;-56
2023/06/28 09:07:51;;;;;;;21.33;11.18;;;16.30;99.90;;;;;;5077070;28;20045;-55
2023/06/28 09:10:17;;;;;;;17.42;10.48;;;16.30;99.90;;;;;;5078308;28;20077;-55
2023/06/28 09:12:45;;;;;;;17.85;10.20;;;16.40;99.90;;;;;;5078565;28;20040;-56
2023/06/28 09:15:11;;;;;;;16.73;11.20;;;16.40;99.90;;;;;;5067938;28;20096;-56
2023/06/28 09:17:36;;;;;;;17.25;10.63;;;16.40;99.90;;;;;;5079371;28;20037;-56
2023/06/28 09:20:18;;;;;;;20.88;11.30;;;16.40;99.90;;;;;;5076904;28;20112;-56
2023/06/28 09:22:58;;;;;;;18.83;11.57;;;16.40;99.90;;;;;;5069298;28;20100;-56
2023/06/28 09:25:29;;;;;;;16.77;11.00;;;16.50;99.90;;;;;;5069163;28;20102;-56
2023/06/28 09:27:59;;;;;;;16.33;10.18;;;16.50;99.90;;;;;;5065705;28;20102;-56
2023/06/28 09:30:24;;;;;;;21.98;12.35;;;16.60;99.90;;;;;;5077857;28;20126;-56
2023/06/28 09:32:51;;;;;;;15.63;11.43;;;16.60;99.90;;;;;;5075905;28;20480;-57
2023/06/28 09:35:23;;;;;;;16.85;10.90;;;16.60;99.90;;;;;;5065944;28;20124;-55
2023/06/28 09:37:53;;;;;;;20.30;12.40;;;16.70;99.90;;;;;;5066954;28;20071;-56
2023/06/28 09:40:19;;;;;;;16.50;11.05;;;16.80;99.90;;;;;;5067888;28;20049;-56
2023/06/28 09:42:46;;;;;;;18.80;12.18;;;16.80;99.90;;;;;;5078121;28;20047;-55
2023/06/28 09:45:33;;;;;;;16.13;11.77;;;16.80;99.90;;;;;;5072900;28;20045;-56
2023/06/28 09:48:03;;;;;;;15.27;10.40;;;16.90;99.90;;;;;;5070782;28;20047;-56
2023/06/28 09:50:38;;;;;;;16.27;10.15;;;16.90;99.90;;;;;;5076778;28;20059;-56
2023/06/28 09:53:09;;;;;;;13.18;11.15;;;17.00;99.90;;;;;;5076591;28;20090;-56
2023/06/28 09:55:41;;;;;;;17.08;11.85;;;16.90;99.90;;;;;;5073867;28;20450;-56
2023/06/28 09:58:12;;;;;;;17.33;11.73;;;17.00;99.90;;;;;;5069425;28;20502;-56
2023/06/28 10:00:39;;;;;;;15.02;11.52;;;17.00;99.90;;;;;;5070821;28;20047;-56
2023/06/28 10:03:09;;;;;;;14.20;10.85;;;17.00;99.90;;;;;;5068666;28;20097;-56
2023/06/28 10:05:40;;;;;;;15.07;11.38;;;17.00;99.90;;;;;;5073583;28;20044;-56
2023/06/28 10:08:09;;;;;;;17.10;12.10;;;17.10;99.90;;;;;;5070604;28;20052;-56
2023/06/28 10:10:36;;;;;;;16.15;11.52;;;17.10;99.90;;;;;;5062269;28;20044;-56
2023/06/28 10:13:04;;;;;;;15.27;12.23;;;17.10;99.90;;;;;;5052960;28;20094;-56
2023/06/28 10:15:36;;;;;;;16.10;12.77;;;17.20;99.90;;;;;;5064962;28;20067;-56
2023/06/28 10:18:03;;;;;;;16.58;11.32;;;17.20;99.90;;;;;;5065591;28;20044;-57
2023/06/28 10:20:29;;;;;;;14.15;12.10;;;17.30;99.90;;;;;;5056403;28;20066;-55
2023/06/28 10:22:57;;;;;;;18.90;13.73;;;17.40;99.90;;;;;;5067236;28;20036;-56
2023/06/28 10:25:22;;;;;;;16.23;14.10;;;17.30;99.90;;;;;;5069103;28;20029;-56
2023/06/28 10:27:49;;;;;;;19.00;14.50;;;17.40;99.90;;;;;;5062365;28;20055;-56
2023/06/28 10:30:15;;;;;;;17.30;15.20;;;17.40;99.90;;;;;;5070229;28;20059;-57
2023/06/28 10:32:43;;;;;;;20.73;15.00;;;17.40;99.90;;;;;;5058934;28;20612;-56
2023/06/28 10:35:10;;;;;;;19.17;14.70;;;17.40;99.90;;;;;;5063866;28;20420;-57
2023/06/28 10:37:36;;;;;;;17.80;14.90;;;17.40;99.90;;;;;;5067608;28;20045;-56
2023/06/28 10:40:04;;;;;;;17.13;14.68;;;17.40;99.90;;;;;;5064934;28;20063;-57
2023/06/28 10:42:40;;;;;;;17.13;14.93;;;17.30;99.90;;;;;;5061694;28;20044;-57
2023/06/28 10:45:08;;;;;;;20.98;16.73;;;17.40;99.90;;;;;;5065257;28;20032;-58
2023/06/28 10:47:35;;;;;;;20.23;16.23;;;17.40;99.90;;;;;;5058675;28;20069;-57
2023/06/28 10:50:05;;;;;;;20.35;16.38;;;17.40;99.90;;;;;;5061955;28;20553;-56
2023/06/28 10:52:31;;;;;;;23.73;17.58;;;17.40;99.90;;;;;;5065226;28;20095;-57
2023/06/28 10:54:57;;;;;;;19.55;16.38;;;17.40;99.90;;;;;;5068265;28;20111;-58
2023/06/28 10:57:39;;;;;;;17.95;16.00;;;17.40;99.90;;;;;;5065862;28;20067;-57
2023/06/28 11:00:28;;;;;;;19.98;17.52;;;17.40;99.90;;;;;;5068111;28;20052;-56
2023/06/28 11:03:03;;;;;;;21.55;17.30;;;17.30;99.90;;;;;;5060512;28;20059;-58
2023/06/28 11:05:37;;;;;;;20.95;18.73;;;17.40;99.90;;;;;;5068791;28;20068;-57
2023/06/28 11:08:10;;;;;;;24.45;18.67;;;17.40;99.90;;;;;;5058053;28;20533;-57
2023/06/28 11:10:41;;;;;;;24.45;17.92;;;17.50;99.90;;;;;;5055555;28;20060;-57
2023/06/28 11:13:11;;;;;;;24.38;19.33;;;17.50;99.90;;;;;;5068534;28;20041;-56
2023/06/28 11:15:45;;;;;;;25.67;17.80;;;17.50;99.90;;;;;;5057415;28;20029;-57
2023/06/28 11:18:18;;;;;;;22.83;18.08;;;17.50;99.90;;;;;;5060489;28;20523;-57
2023/06/28 11:21:05;;;;;;;27.42;20.48;;;17.50;99.90;;;;;;5061751;28;20068;-57
2023/06/28 11:23:39;;;;;;;27.40;19.80;;;17.60;99.90;;;;;;5060535;28;20561;-57
2023/06/28 11:26:07;;;;;;;28.13;20.15;;;17.60;99.90;;;;;;5059999;28;20052;-56
2023/06/28 11:28:34;;;;;;;26.83;19.60;;;17.60;99.90;;;;;;5056060;28;20041;-57
2023/06/28 11:31:25;;;;;;;30.27;18.98;;;17.70;99.90;;;;;;5066579;28;20033;-56
2023/06/28 11:33:54;;;;;;;30.30;19.65;;;17.70;99.90;;;;;;5060684;28;20044;-56
2023/06/28 11:36:24;;;;;;;26.55;19.05;;;17.90;99.90;;;;;;5066396;28;20607;-57
2023/06/28 11:38:50;;;;;;;34.45;19.55;;;17.90;99.90;;;;;;5068651;28;20033;-57
2023/06/28 11:41:16;;;;;;;29.27;19.40;;;17.90;99.90;;;;;;5070959;28;20040;-57
2023/06/28 11:43:46;;;;;;;29.83;18.95;;;17.90;99.90;;;;;;5064024;28;20497;-58
2023/06/28 11:46:20;;;;;;;34.08;20.70;;;17.90;99.90;;;;;;5072149;28;20107;-56
2023/06/28 11:48:49;;;;;;;31.20;18.33;;;17.70;99.90;;;;;;5063409;28;20070;-57
2023/06/28 11:51:16;;;;;;;30.83;19.67;;;17.90;99.90;;;;;;5060829;28;20052;-57
2023/06/28 11:53:46;;;;;;;32.03;18.95;;;18.00;99.90;;;;;;5057736;28;20041;-57
2023/06/28 11:56:12;;;;;;;30.95;19.63;;;18.00;99.90;;;;;;5068813;28;20042;-56
2023/06/28 11:58:38;;;;;;;27.65;18.42;;;18.10;99.90;;;;;;5060275;28;20077;-57
2023/06/28 12:01:05;;;;;;;30.83;19.10;;;18.10;99.90;;;;;;5066830;28;20064;-57
2023/06/28 12:03:37;;;;;;;29.10;17.30;;;18.20;99.90;;;;;;5069622;28;20565;-57
2023/06/28 12:06:06;;;;;;;27.90;17.52;;;18.20;99.90;;;;;;5067710;28;20050;-57
2023/06/28 12:08:37;;;;;;;28.70;18.33;;;18.20;99.90;;;;;;5072162;28;20041;-56
2023/06/28 12:11:12;;;;;;;29.42;18.80;;;18.30;99.90;;;;;;5063253;28;20029;-57
2023/06/28 12:13:39;;;;;;;30.27;17.38;;;18.30;99.90;;;;;;5061958;28;20526;-57
2023/06/28 12:16:15;;;;;;;29.05;18.75;;;18.40;99.90;;;;;;5065878;28;20041;-57
2023/06/28 12:18:57;;;;;;;27.15;17.88;;;18.40;99.90;;;;;;5071453;28;20111;-57
2023/06/28 12:21:30;;;;;;;29.98;17.20;;;18.50;99.90;;;;;;5067586;28;20432;-56
2023/06/28 12:24:16;;;;;;;25.85;17.00;;;18.60;99.90;;;;;;5056288;28;20083;-55
2023/06/28 12:26:46;;;;;;;25.88;16.98;;;18.60;99.90;;;;;;5064291;28;20044;-56
2023/06/28 12:29:12;;;;;;;27.73;17.45;;;18.60;99.90;;;;;;5063294;28;20329;-56
2023/06/28 12:31:46;;;;;;;24.25;17.80;;;18.70;99.90;;;;;;5063612;28;20037;-56
2023/06/28 12:34:29;;;;;;;26.70;17.60;;;18.70;99.90;;;;;;5071177;28;20061;-57
2023/06/28 12:36:56;;;;;;;25.17;16.95;;;18.80;99.90;;;;;;5063991;28;20099;-57
2023/06/28 12:39:36;;;;;;;27.73;18.27;;;18.90;99.90;;;;;;5066263;28;20039;-55